sensor_id;sensor_type;location;lat;lon;timestamp;temperature;humidity
23703;DHT22;12030;50.376;8.762;2022-12-18T00:01:47;-6.40;99.90
23703;DHT22;12030;50.376;8.762;2022-12-18T00:04:24;-6.50;99.90
23703;DHT22;12030;50.376;8.762;2022-12-18T00:06:50;-6.50;99.90
23703;DHT22;12030;50.376;8.762;2022-12-18T00:09:16;-6.60;99.90
23703;DHT22;12030;50.376;8.762;2022-12-18T00:11:42;-6.50;99.90
23703;DHT22;12030;50.376;8.762;2022-12-18T00:14:09;-6.60;99.90
23703;DHT22;12030;50.376;8.762;2022-12-18T00:16:36;-6.60;99.90
23703;DHT22;12030;50.376;8.762;2022-12-18T00:19:02;-6.60;99.90
23703;DHT22;12030;50.376;8.762;2022-12-18T00:21:29;-6.60;99.90
23703;DHT22;12030;50.376;8.762;2022-12-18T00:23:55;-6.60;99.90
23703;DHT22;12030;50.376;8.762;2022-12-18T00:26:30;-6.60;99.90
23703;DHT22;12030;50.376;8.762;2022-12-18T00:28:59;-6.60;99.90
23703;DHT22;12030;50.376;8.762;2022-12-18T00:31:25;-6.60;99.90
23703;DHT22;12030;50.376;8.762;2022-12-18T00:33:52;-6.60;99.90
23703;DHT22;12030;50.376;8.762;2022-12-18T00:36:21;-6.60;99.90
23703;DHT22;12030;50.376;8.762;2022-12-18T00:38:47;-6.60;99.90
23703;DHT22;12030;50.376;8.762;2022-12-18T00:41:15;-6.60;99.90
23703;DHT22;12030;50.376;8.762;2022-12-18T00:43:59;-6.50;99.90
23703;DHT22;12030;50.376;8.762;2022-12-18T00:46:24;-6.50;99.90
23703;DHT22;12030;50.376;8.762;2022-12-18T00:48:50;-6.50;99.90
23703;DHT22;12030;50.376;8.762;2022-12-18T00:51:15;-6.50;99.90
23703;DHT22;12030;50.376;8.762;2022-12-18T00:53:41;-6.50;99.90
23703;DHT22;12030;50.376;8.762;2022-12-18T00:56:06;-6.50;99.90
23703;DHT22;12030;50.376;8.762;2022-12-18T00:58:35;-6.50;99.90
23703;DHT22;12030;50.376;8.762;2022-12-18T01:01:00;-6.50;99.90
23703;DHT22;12030;50.376;8.762;2022-12-18T01:03:26;-6.50;99.90
23703;DHT22;12030;50.376;8.762;2022-12-18T01:05:51;-6.40;99.90
23703;DHT22;12030;50.376;8.762;2022-12-18T01:08:17;-6.40;99.90
23703;DHT22;12030;50.376;8.762;2022-12-18T01:10:42;-6.40;99.90
23703;DHT22;12030;50.376;8.762;2022-12-18T01:13:08;-6.30;99.90
23703;DHT22;12030;50.376;8.762;2022-12-18T01:15:34;-6.40;99.90
23703;DHT22;12030;50.376;8.762;2022-12-18T01:17:59;-6.30;99.90
23703;DHT22;12030;50.376;8.762;2022-12-18T01:20:25;-6.30;99.90
23703;DHT22;12030;50.376;8.762;2022-12-18T01:22:50;-6.30;99.90
23703;DHT22;12030;50.376;8.762;2022-12-18T01:25:16;-6.30;99.90
23703;DHT22;12030;50.376;8.762;2022-12-18T01:27:41;-6.30;99.90
23703;DHT22;12030;50.376;8.762;2022-12-18T01:30:07;-6.30;99.90
23703;DHT22;12030;50.376;8.762;2022-12-18T01:32:33;-6.50;99.90
23703;DHT22;12030;50.376;8.762;2022-12-18T01:34:58;-6.60;99.90
23703;DHT22;12030;50.376;8.762;2022-12-18T01:37:24;-6.80;99.90
23703;DHT22;12030;50.376;8.762;2022-12-18T01:39:50;-6.80;99.90
23703;DHT22;12030;50.376;8.762;2022-12-18T01:42:17;-6.70;99.90
23703;DHT22;12030;50.376;8.762;2022-12-18T01:50:24;-6.50;99.90
23703;DHT22;12030;50.376;8.762;2022-12-18T01:53:15;-6.60;99.90
23703;DHT22;12030;50.376;8.762;2022-12-18T01:55:51;-6.60;99.90
23703;DHT22;12030;50.376;8.762;2022-12-18T01:58:18;-6.60;99.90
23703;DHT22;12030;50.376;8.762;2022-12-18T02:00:44;-6.60;99.90
23703;DHT22;12030;50.376;8.762;2022-12-18T02:03:10;-6.60;99.90
23703;DHT22;12030;50.376;8.762;2022-12-18T02:05:47;-6.70;99.90
23703;DHT22;12030;50.376;8.762;2022-12-18T02:16:25;-6.90;99.90
23703;DHT22;12030;50.376;8.762;2022-12-18T02:18:58;-7.00;99.90
23703;DHT22;12030;50.376;8.762;2022-12-18T02:22:06;-7.00;99.90
23703;DHT22;12030;50.376;8.762;2022-12-18T02:27:52;-7.00;99.90
23703;DHT22;12030;50.376;8.762;2022-12-18T02:30:18;-7.10;99.90
23703;DHT22;12030;50.376;8.762;2022-12-18T02:32:50;-7.10;99.90
23703;DHT22;12030;50.376;8.762;2022-12-18T02:35:20;-7.10;99.90
23703;DHT22;12030;50.376;8.762;2022-12-18T02:37:47;-7.20;99.90
23703;DHT22;12030;50.376;8.762;2022-12-18T02:40:14;-7.10;99.90
23703;DHT22;12030;50.376;8.762;2022-12-18T02:42:41;-7.20;99.90
23703;DHT22;12030;50.376;8.762;2022-12-18T02:45:07;-7.20;99.90
23703;DHT22;12030;50.376;8.762;2022-12-18T02:47:36;-7.20;99.90
23703;DHT22;12030;50.376;8.762;2022-12-18T02:52:55;-7.20;99.90
23703;DHT22;12030;50.376;8.762;2022-12-18T02:58:17;-7.20;99.90
23703;DHT22;12030;50.376;8.762;2022-12-18T03:00:51;-7.20;99.90
23703;DHT22;12030;50.376;8.762;2022-12-18T03:06:04;-7.20;99.90
23703;DHT22;12030;50.376;8.762;2022-12-18T03:08:37;-7.20;99.90
23703;DHT22;12030;50.376;8.762;2022-12-18T03:11:10;-7.20;99.90
23703;DHT22;12030;50.376;8.762;2022-12-18T03:13:40;-7.20;99.90
23703;DHT22;12030;50.376;8.762;2022-12-18T03:16:11;-7.30;99.90
23703;DHT22;12030;50.376;8.762;2022-12-18T03:18:57;-7.30;99.90
23703;DHT22;12030;50.376;8.762;2022-12-18T03:21:29;-7.40;99.90
23703;DHT22;12030;50.376;8.762;2022-12-18T03:23:58;-7.40;99.90
23703;DHT22;12030;50.376;8.762;2022-12-18T03:26:25;-7.40;99.90
23703;DHT22;12030;50.376;8.762;2022-12-18T03:28:56;-7.40;99.90
23703;DHT22;12030;50.376;8.762;2022-12-18T03:31:23;-7.40;99.90
23703;DHT22;12030;50.376;8.762;2022-12-18T03:34:20;-7.40;99.90
23703;DHT22;12030;50.376;8.762;2022-12-18T03:36:47;-7.30;99.90
23703;DHT22;12030;50.376;8.762;2022-12-18T03:39:13;-7.30;99.90
23703;DHT22;12030;50.376;8.762;2022-12-18T03:47:31;-7.30;99.90
23703;DHT22;12030;50.376;8.762;2022-12-18T03:52:41;-7.40;99.90
23703;DHT22;12030;50.376;8.762;2022-12-18T03:55:11;-7.50;99.90
23703;DHT22;12030;50.376;8.762;2022-12-18T03:57:38;-7.60;99.90
23703;DHT22;12030;50.376;8.762;2022-12-18T04:00:07;-7.70;99.90
23703;DHT22;12030;50.376;8.762;2022-12-18T04:02:35;-7.70;99.90
23703;DHT22;12030;50.376;8.762;2022-12-18T04:05:03;-7.70;99.90
23703;DHT22;12030;50.376;8.762;2022-12-18T04:07:30;-7.70;99.90
23703;DHT22;12030;50.376;8.762;2022-12-18T04:09:56;-7.70;99.90
23703;DHT22;12030;50.376;8.762;2022-12-18T04:12:25;-7.70;99.90
23703;DHT22;12030;50.376;8.762;2022-12-18T04:14:54;-7.70;99.90
23703;DHT22;12030;50.376;8.762;2022-12-18T04:17:19;-7.70;99.90
23703;DHT22;12030;50.376;8.762;2022-12-18T04:19:45;-7.70;99.90
23703;DHT22;12030;50.376;8.762;2022-12-18T04:22:10;-7.80;99.90
23703;DHT22;12030;50.376;8.762;2022-12-18T04:24:36;-7.90;99.90
23703;DHT22;12030;50.376;8.762;2022-12-18T04:27:02;-8.00;99.90
23703;DHT22;12030;50.376;8.762;2022-12-18T04:29:28;-8.00;99.90
23703;DHT22;12030;50.376;8.762;2022-12-18T04:31:53;-8.00;99.90
23703;DHT22;12030;50.376;8.762;2022-12-18T04:34:19;-8.20;99.90
23703;DHT22;12030;50.376;8.762;2022-12-18T04:36:45;-8.20;99.90
23703;DHT22;12030;50.376;8.762;2022-12-18T04:39:11;-8.10;99.90
23703;DHT22;12030;50.376;8.762;2022-12-18T04:41:36;-8.20;99.90
23703;DHT22;12030;50.376;8.762;2022-12-18T04:44:02;-8.20;99.90
23703;DHT22;12030;50.376;8.762;2022-12-18T04:46:28;-8.40;99.90
23703;DHT22;12030;50.376;8.762;2022-12-18T04:48:53;-8.70;99.90
23703;DHT22;12030;50.376;8.762;2022-12-18T04:51:19;-8.70;99.90
23703;DHT22;12030;50.376;8.762;2022-12-18T04:53:45;-8.80;99.90
23703;DHT22;12030;50.376;8.762;2022-12-18T04:56:12;-8.70;99.90
23703;DHT22;12030;50.376;8.762;2022-12-18T04:58:39;-8.70;99.90
23703;DHT22;12030;50.376;8.762;2022-12-18T05:01:06;-8.50;99.90
23703;DHT22;12030;50.376;8.762;2022-12-18T05:03:33;-8.40;99.90
23703;DHT22;12030;50.376;8.762;2022-12-18T05:05:58;-8.30;99.90
23703;DHT22;12030;50.376;8.762;2022-12-18T05:08:24;-8.40;99.90
23703;DHT22;12030;50.376;8.762;2022-12-18T05:10:50;-8.40;99.90
23703;DHT22;12030;50.376;8.762;2022-12-18T05:13:23;-8.40;99.90
23703;DHT22;12030;50.376;8.762;2022-12-18T05:15:52;-8.40;99.90
23703;DHT22;12030;50.376;8.762;2022-12-18T05:18:18;-8.40;99.90
23703;DHT22;12030;50.376;8.762;2022-12-18T05:20:43;-8.40;99.90
23703;DHT22;12030;50.376;8.762;2022-12-18T05:23:09;-8.40;99.90
23703;DHT22;12030;50.376;8.762;2022-12-18T05:25:34;-8.50;99.90
23703;DHT22;12030;50.376;8.762;2022-12-18T05:28:00;-8.50;99.90
23703;DHT22;12030;50.376;8.762;2022-12-18T05:30:25;-8.60;99.90
23703;DHT22;12030;50.376;8.762;2022-12-18T05:32:51;-8.80;99.90
23703;DHT22;12030;50.376;8.762;2022-12-18T05:35:17;-8.80;99.90
23703;DHT22;12030;50.376;8.762;2022-12-18T05:37:42;-8.70;99.90
23703;DHT22;12030;50.376;8.762;2022-12-18T05:40:08;-8.80;99.90
23703;DHT22;12030;50.376;8.762;2022-12-18T05:42:34;-8.70;99.90
23703;DHT22;12030;50.376;8.762;2022-12-18T05:44:59;-8.70;99.90
23703;DHT22;12030;50.376;8.762;2022-12-18T05:47:26;-8.70;99.90
23703;DHT22;12030;50.376;8.762;2022-12-18T05:49:52;-8.70;99.90
23703;DHT22;12030;50.376;8.762;2022-12-18T05:52:18;-8.60;99.90
23703;DHT22;12030;50.376;8.762;2022-12-18T05:54:43;-8.90;99.90
23703;DHT22;12030;50.376;8.762;2022-12-18T05:57:09;-9.10;99.90
23703;DHT22;12030;50.376;8.762;2022-12-18T05:59:35;-9.00;99.90
23703;DHT22;12030;50.376;8.762;2022-12-18T06:02:01;-9.10;99.90
23703;DHT22;12030;50.376;8.762;2022-12-18T06:04:30;-9.10;99.90
23703;DHT22;12030;50.376;8.762;2022-12-18T06:06:55;-9.00;99.90
23703;DHT22;12030;50.376;8.762;2022-12-18T06:09:21;-8.90;99.90
23703;DHT22;12030;50.376;8.762;2022-12-18T06:11:47;-9.00;99.90
23703;DHT22;12030;50.376;8.762;2022-12-18T06:14:12;-9.00;99.90
23703;DHT22;12030;50.376;8.762;2022-12-18T06:16:38;-9.00;99.90
23703;DHT22;12030;50.376;8.762;2022-12-18T06:19:05;-9.00;99.90
23703;DHT22;12030;50.376;8.762;2022-12-18T06:21:31;-9.00;99.90
23703;DHT22;12030;50.376;8.762;2022-12-18T06:23:56;-8.90;99.90
23703;DHT22;12030;50.376;8.762;2022-12-18T06:26:22;-8.80;99.90
23703;DHT22;12030;50.376;8.762;2022-12-18T06:28:48;-8.70;99.90
23703;DHT22;12030;50.376;8.762;2022-12-18T06:31:13;-8.60;99.90
23703;DHT22;12030;50.376;8.762;2022-12-18T06:33:39;-8.70;99.90
23703;DHT22;12030;50.376;8.762;2022-12-18T06:36:07;-8.60;99.90
23703;DHT22;12030;50.376;8.762;2022-12-18T06:38:35;-8.60;99.90
23703;DHT22;12030;50.376;8.762;2022-12-18T06:41:05;-8.50;99.90
23703;DHT22;12030;50.376;8.762;2022-12-18T06:43:31;-8.50;99.90
23703;DHT22;12030;50.376;8.762;2022-12-18T06:46:00;-8.50;99.90
23703;DHT22;12030;50.376;8.762;2022-12-18T06:48:26;-8.40;99.90
23703;DHT22;12030;50.376;8.762;2022-12-18T06:50:52;-8.60;99.90
23703;DHT22;12030;50.376;8.762;2022-12-18T06:53:17;-8.60;99.90
23703;DHT22;12030;50.376;8.762;2022-12-18T06:55:43;-8.60;99.90
23703;DHT22;12030;50.376;8.762;2022-12-18T06:58:08;-8.70;99.90
23703;DHT22;12030;50.376;8.762;2022-12-18T07:00:35;-8.70;99.90
23703;DHT22;12030;50.376;8.762;2022-12-18T07:03:01;-8.70;99.90
23703;DHT22;12030;50.376;8.762;2022-12-18T07:05:26;-8.70;99.90
23703;DHT22;12030;50.376;8.762;2022-12-18T07:07:52;-8.70;99.90
23703;DHT22;12030;50.376;8.762;2022-12-18T07:10:18;-8.60;99.90
23703;DHT22;12030;50.376;8.762;2022-12-18T07:12:43;-8.40;99.90
23703;DHT22;12030;50.376;8.762;2022-12-18T07:15:09;-8.30;99.90
23703;DHT22;12030;50.376;8.762;2022-12-18T07:17:35;-8.30;99.90
23703;DHT22;12030;50.376;8.762;2022-12-18T07:20:00;-8.20;99.90
23703;DHT22;12030;50.376;8.762;2022-12-18T07:22:26;-8.10;99.90
23703;DHT22;12030;50.376;8.762;2022-12-18T07:24:52;-8.10;99.90
23703;DHT22;12030;50.376;8.762;2022-12-18T07:27:17;-8.00;99.90
23703;DHT22;12030;50.376;8.762;2022-12-18T07:29:43;-8.10;99.90
23703;DHT22;12030;50.376;8.762;2022-12-18T07:32:09;-8.00;99.90
23703;DHT22;12030;50.376;8.762;2022-12-18T07:34:34;-8.10;99.90
23703;DHT22;12030;50.376;8.762;2022-12-18T07:37:00;-8.10;99.90
23703;DHT22;12030;50.376;8.762;2022-12-18T07:39:26;-8.00;99.90
23703;DHT22;12030;50.376;8.762;2022-12-18T07:41:51;-7.90;99.90
23703;DHT22;12030;50.376;8.762;2022-12-18T07:44:36;-7.90;99.90
23703;DHT22;12030;50.376;8.762;2022-12-18T07:47:01;-8.00;99.90
23703;DHT22;12030;50.376;8.762;2022-12-18T07:49:27;-8.10;99.90
23703;DHT22;12030;50.376;8.762;2022-12-18T07:51:55;-8.10;99.90
23703;DHT22;12030;50.376;8.762;2022-12-18T07:54:21;-8.10;99.90
23703;DHT22;12030;50.376;8.762;2022-12-18T07:56:47;-8.10;99.90
23703;DHT22;12030;50.376;8.762;2022-12-18T07:59:12;-8.10;99.90
23703;DHT22;12030;50.376;8.762;2022-12-18T08:01:38;-8.20;99.90
23703;DHT22;12030;50.376;8.762;2022-12-18T08:04:03;-8.20;99.90
23703;DHT22;12030;50.376;8.762;2022-12-18T08:06:29;-8.20;99.90
23703;DHT22;12030;50.376;8.762;2022-12-18T08:08:55;-8.20;99.90
23703;DHT22;12030;50.376;8.762;2022-12-18T08:11:22;-8.30;99.90
23703;DHT22;12030;50.376;8.762;2022-12-18T08:13:48;-8.30;99.90
23703;DHT22;12030;50.376;8.762;2022-12-18T08:16:14;-8.30;99.90
23703;DHT22;12030;50.376;8.762;2022-12-18T08:18:39;-8.30;99.90
23703;DHT22;12030;50.376;8.762;2022-12-18T08:21:16;-8.40;99.90
23703;DHT22;12030;50.376;8.762;2022-12-18T08:23:42;-8.30;99.90
23703;DHT22;12030;50.376;8.762;2022-12-18T08:26:08;-8.20;99.90
23703;DHT22;12030;50.376;8.762;2022-12-18T08:28:34;-8.10;99.90
23703;DHT22;12030;50.376;8.762;2022-12-18T08:31:00;-8.00;99.90
23703;DHT22;12030;50.376;8.762;2022-12-18T08:33:26;-8.00;99.90
23703;DHT22;12030;50.376;8.762;2022-12-18T08:35:52;-7.80;99.90
23703;DHT22;12030;50.376;8.762;2022-12-18T08:38:18;-7.80;99.90
23703;DHT22;12030;50.376;8.762;2022-12-18T08:40:43;-7.70;99.90
23703;DHT22;12030;50.376;8.762;2022-12-18T08:43:10;-7.60;99.90
23703;DHT22;12030;50.376;8.762;2022-12-18T08:45:55;-7.50;99.90
23703;DHT22;12030;50.376;8.762;2022-12-18T08:48:21;-7.30;99.90
23703;DHT22;12030;50.376;8.762;2022-12-18T08:50:57;-7.20;99.90
23703;DHT22;12030;50.376;8.762;2022-12-18T08:53:23;-7.20;99.90
23703;DHT22;12030;50.376;8.762;2022-12-18T08:55:49;-7.30;99.90
23703;DHT22;12030;50.376;8.762;2022-12-18T08:58:15;-7.10;99.90
23703;DHT22;12030;50.376;8.762;2022-12-18T09:00:40;-7.10;99.90
23703;DHT22;12030;50.376;8.762;2022-12-18T09:03:12;-7.00;99.90
23703;DHT22;12030;50.376;8.762;2022-12-18T09:05:37;-6.90;99.90
23703;DHT22;12030;50.376;8.762;2022-12-18T09:08:03;-6.80;99.90
23703;DHT22;12030;50.376;8.762;2022-12-18T09:10:28;-6.70;99.90
23703;DHT22;12030;50.376;8.762;2022-12-18T09:12:54;-6.60;99.90
23703;DHT22;12030;50.376;8.762;2022-12-18T09:15:21;-6.50;99.90
23703;DHT22;12030;50.376;8.762;2022-12-18T09:17:47;-6.40;99.90
23703;DHT22;12030;50.376;8.762;2022-12-18T09:20:13;-6.30;99.90
23703;DHT22;12030;50.376;8.762;2022-12-18T09:22:39;-6.30;99.90
23703;DHT22;12030;50.376;8.762;2022-12-18T09:25:04;-6.20;99.90
23703;DHT22;12030;50.376;8.762;2022-12-18T09:27:33;-6.20;99.90
23703;DHT22;12030;50.376;8.762;2022-12-18T09:29:59;-6.20;99.90
23703;DHT22;12030;50.376;8.762;2022-12-18T09:32:24;-6.10;99.90
23703;DHT22;12030;50.376;8.762;2022-12-18T09:34:50;-6.10;99.90
23703;DHT22;12030;50.376;8.762;2022-12-18T09:37:15;-5.90;99.90
23703;DHT22;12030;50.376;8.762;2022-12-18T09:39:41;-5.90;99.90
23703;DHT22;12030;50.376;8.762;2022-12-18T09:42:12;-6.10;99.90
23703;DHT22;12030;50.376;8.762;2022-12-18T09:44:42;-6.10;99.90
23703;DHT22;12030;50.376;8.762;2022-12-18T09:47:16;-6.00;99.90
23703;DHT22;12030;50.376;8.762;2022-12-18T09:49:46;-6.00;99.90
23703;DHT22;12030;50.376;8.762;2022-12-18T09:55:32;-5.90;99.90
23703;DHT22;12030;50.376;8.762;2022-12-18T10:01:00;-5.50;99.90
23703;DHT22;12030;50.376;8.762;2022-12-18T10:03:26;-5.40;99.90
23703;DHT22;12030;50.376;8.762;2022-12-18T10:06:14;-5.30;99.90
23703;DHT22;12030;50.376;8.762;2022-12-18T10:08:58;-5.20;99.90
23703;DHT22;12030;50.376;8.762;2022-12-18T10:14:20;-5.10;99.90
23703;DHT22;12030;50.376;8.762;2022-12-18T10:22:20;-4.80;99.90
23703;DHT22;12030;50.376;8.762;2022-12-18T10:25:03;-4.70;99.90
23703;DHT22;12030;50.376;8.762;2022-12-18T10:27:31;-4.60;99.90
23703;DHT22;12030;50.376;8.762;2022-12-18T10:29:57;-4.40;99.90
23703;DHT22;12030;50.376;8.762;2022-12-18T10:32:26;-4.40;99.90
23703;DHT22;12030;50.376;8.762;2022-12-18T10:34:54;-4.50;99.90
23703;DHT22;12030;50.376;8.762;2022-12-18T10:37:23;-4.30;99.90
23703;DHT22;12030;50.376;8.762;2022-12-18T10:40:13;-4.20;99.90
23703;DHT22;12030;50.376;8.762;2022-12-18T10:42:39;-4.10;99.90
23703;DHT22;12030;50.376;8.762;2022-12-18T10:45:12;-4.00;99.90
23703;DHT22;12030;50.376;8.762;2022-12-18T10:47:44;-4.00;99.90
23703;DHT22;12030;50.376;8.762;2022-12-18T10:50:20;-3.80;99.90
23703;DHT22;12030;50.376;8.762;2022-12-18T10:53:00;-3.80;99.90
23703;DHT22;12030;50.376;8.762;2022-12-18T10:55:45;-3.70;99.90
23703;DHT22;12030;50.376;8.762;2022-12-18T11:01:16;-3.50;99.90
23703;DHT22;12030;50.376;8.762;2022-12-18T11:06:22;-3.50;99.90
23703;DHT22;12030;50.376;8.762;2022-12-18T11:11:28;-3.40;99.90
23703;DHT22;12030;50.376;8.762;2022-12-18T11:13:57;-3.40;99.90
23703;DHT22;12030;50.376;8.762;2022-12-18T11:16:23;-3.40;99.90
23703;DHT22;12030;50.376;8.762;2022-12-18T11:18:49;-3.50;99.90
23703;DHT22;12030;50.376;8.762;2022-12-18T11:21:15;-3.40;99.90
23703;DHT22;12030;50.376;8.762;2022-12-18T11:23:51;-3.50;99.90
23703;DHT22;12030;50.376;8.762;2022-12-18T11:26:17;-3.50;99.90
23703;DHT22;12030;50.376;8.762;2022-12-18T11:29:07;-3.40;99.90
23703;DHT22;12030;50.376;8.762;2022-12-18T11:31:33;-3.30;99.90
23703;DHT22;12030;50.376;8.762;2022-12-18T11:34:11;-3.40;99.90
23703;DHT22;12030;50.376;8.762;2022-12-18T11:36:42;-3.30;99.90
23703;DHT22;12030;50.376;8.762;2022-12-18T11:39:15;-3.20;99.90
23703;DHT22;12030;50.376;8.762;2022-12-18T11:41:54;-3.10;99.90
23703;DHT22;12030;50.376;8.762;2022-12-18T11:44:52;-3.00;99.90
23703;DHT22;12030;50.376;8.762;2022-12-18T11:47:52;-3.00;99.90
23703;DHT22;12030;50.376;8.762;2022-12-18T11:50:24;-2.90;99.90
23703;DHT22;12030;50.376;8.762;2022-12-18T11:52:50;-3.00;99.90
23703;DHT22;12030;50.376;8.762;2022-12-18T11:58:15;-2.90;99.90
23703;DHT22;12030;50.376;8.762;2022-12-18T12:01:30;-2.70;99.90
23703;DHT22;12030;50.376;8.762;2022-12-18T12:04:12;-2.60;99.90
23703;DHT22;12030;50.376;8.762;2022-12-18T12:12:17;-2.60;99.90
23703;DHT22;12030;50.376;8.762;2022-12-18T12:14:57;-2.70;99.90
23703;DHT22;12030;50.376;8.762;2022-12-18T12:17:44;-2.60;99.90
23703;DHT22;12030;50.376;8.762;2022-12-18T12:23:49;-2.60;99.90
23703;DHT22;12030;50.376;8.762;2022-12-18T12:26:26;-2.60;99.90
23703;DHT22;12030;50.376;8.762;2022-12-18T12:34:35;-2.50;99.90
23703;DHT22;12030;50.376;8.762;2022-12-18T12:37:09;-2.60;99.90
23703;DHT22;12030;50.376;8.762;2022-12-18T12:39:40;-2.60;99.90
23703;DHT22;12030;50.376;8.762;2022-12-18T12:42:13;-2.70;99.90
23703;DHT22;12030;50.376;8.762;2022-12-18T12:44:59;-2.70;99.90
23703;DHT22;12030;50.376;8.762;2022-12-18T12:47:37;-2.70;99.90
23703;DHT22;12030;50.376;8.762;2022-12-18T12:50:06;-2.80;99.90
23703;DHT22;12030;50.376;8.762;2022-12-18T12:52:45;-2.70;99.90
23703;DHT22;12030;50.376;8.762;2022-12-18T12:55:24;-2.70;99.90
23703;DHT22;12030;50.376;8.762;2022-12-18T12:58:15;-2.60;99.90
23703;DHT22;12030;50.376;8.762;2022-12-18T13:00:53;-2.70;99.90
23703;DHT22;12030;50.376;8.762;2022-12-18T13:03:54;-2.60;99.90
23703;DHT22;12030;50.376;8.762;2022-12-18T13:09:00;-2.70;99.90
23703;DHT22;12030;50.376;8.762;2022-12-18T13:11:44;-2.60;99.90
23703;DHT22;12030;50.376;8.762;2022-12-18T13:14:32;-2.70;99.90
23703;DHT22;12030;50.376;8.762;2022-12-18T13:17:26;-2.70;99.90
23703;DHT22;12030;50.376;8.762;2022-12-18T13:20:07;-2.70;99.90
23703;DHT22;12030;50.376;8.762;2022-12-18T13:25:02;-2.70;99.90
23703;DHT22;12030;50.376;8.762;2022-12-18T13:38:35;-2.70;99.90
23703;DHT22;12030;50.376;8.762;2022-12-18T13:41:26;-2.70;99.90
23703;DHT22;12030;50.376;8.762;2022-12-18T13:43:55;-2.80;99.90
23703;DHT22;12030;50.376;8.762;2022-12-18T13:51:43;-2.60;99.90
23703;DHT22;12030;50.376;8.762;2022-12-18T13:54:32;-2.60;99.90
23703;DHT22;12030;50.376;8.762;2022-12-18T13:56:59;-2.50;99.90
23703;DHT22;12030;50.376;8.762;2022-12-18T13:59:48;-2.50;99.90
23703;DHT22;12030;50.376;8.762;2022-12-18T14:02:17;-2.50;99.90
23703;DHT22;12030;50.376;8.762;2022-12-18T14:04:47;-2.60;99.90
23703;DHT22;12030;50.376;8.762;2022-12-18T14:07:21;-2.60;99.90
23703;DHT22;12030;50.376;8.762;2022-12-18T14:09:59;-2.60;99.90
23703;DHT22;12030;50.376;8.762;2022-12-18T14:12:31;-2.60;99.90
23703;DHT22;12030;50.376;8.762;2022-12-18T14:15:33;-2.60;99.90
23703;DHT22;12030;50.376;8.762;2022-12-18T14:18:00;-2.60;99.90
23703;DHT22;12030;50.376;8.762;2022-12-18T14:20:32;-2.40;99.90
23703;DHT22;12030;50.376;8.762;2022-12-18T14:22:58;-2.40;99.90
23703;DHT22;12030;50.376;8.762;2022-12-18T14:25:26;-2.40;99.90
23703;DHT22;12030;50.376;8.762;2022-12-18T14:28:02;-2.50;99.90
23703;DHT22;12030;50.376;8.762;2022-12-18T14:30:31;-2.50;99.90
23703;DHT22;12030;50.376;8.762;2022-12-18T14:35:41;-2.50;99.90
23703;DHT22;12030;50.376;8.762;2022-12-18T14:40:42;-2.70;99.90
23703;DHT22;12030;50.376;8.762;2022-12-18T14:43:11;-2.80;99.90
23703;DHT22;12030;50.376;8.762;2022-12-18T14:45:39;-2.80;99.90
23703;DHT22;12030;50.376;8.762;2022-12-18T14:50:39;-2.80;99.90
23703;DHT22;12030;50.376;8.762;2022-12-18T14:53:05;-2.80;99.90
23703;DHT22;12030;50.376;8.762;2022-12-18T14:55:30;-2.90;99.90
23703;DHT22;12030;50.376;8.762;2022-12-18T14:57:57;-2.80;99.90
23703;DHT22;12030;50.376;8.762;2022-12-18T15:00:24;-2.80;99.90
23703;DHT22;12030;50.376;8.762;2022-12-18T15:02:53;-2.80;99.90
23703;DHT22;12030;50.376;8.762;2022-12-18T15:05:28;-2.80;99.90
23703;DHT22;12030;50.376;8.762;2022-12-18T15:07:56;-2.80;99.90
23703;DHT22;12030;50.376;8.762;2022-12-18T15:10:29;-2.80;99.90
23703;DHT22;12030;50.376;8.762;2022-12-18T15:20:31;-2.80;99.90
23703;DHT22;12030;50.376;8.762;2022-12-18T15:22:56;-2.80;99.90
23703;DHT22;12030;50.376;8.762;2022-12-18T15:25:33;-2.80;99.90
23703;DHT22;12030;50.376;8.762;2022-12-18T15:27:59;-2.80;99.90
23703;DHT22;12030;50.376;8.762;2022-12-18T15:30:26;-2.80;99.90
23703;DHT22;12030;50.376;8.762;2022-12-18T15:32:52;-2.90;99.90
23703;DHT22;12030;50.376;8.762;2022-12-18T15:35:37;-2.90;99.90
23703;DHT22;12030;50.376;8.762;2022-12-18T15:38:03;-2.90;99.90
23703;DHT22;12030;50.376;8.762;2022-12-18T15:40:28;-2.80;99.90
23703;DHT22;12030;50.376;8.762;2022-12-18T15:42:55;-2.80;99.90
23703;DHT22;12030;50.376;8.762;2022-12-18T15:45:39;-2.80;99.90
23703;DHT22;12030;50.376;8.762;2022-12-18T15:48:20;-2.70;99.90
23703;DHT22;12030;50.376;8.762;2022-12-18T15:50:45;-2.70;99.90
23703;DHT22;12030;50.376;8.762;2022-12-18T15:53:11;-2.60;99.90
23703;DHT22;12030;50.376;8.762;2022-12-18T15:55:37;-2.50;99.90
23703;DHT22;12030;50.376;8.762;2022-12-18T15:58:21;-2.50;99.90
23703;DHT22;12030;50.376;8.762;2022-12-18T16:00:47;-2.60;99.90
23703;DHT22;12030;50.376;8.762;2022-12-18T16:03:13;-2.60;99.90
23703;DHT22;12030;50.376;8.762;2022-12-18T16:05:38;-2.60;99.90
23703;DHT22;12030;50.376;8.762;2022-12-18T16:08:03;-2.60;99.90
23703;DHT22;12030;50.376;8.762;2022-12-18T16:10:29;-2.50;99.90
23703;DHT22;12030;50.376;8.762;2022-12-18T16:12:55;-2.60;99.90
23703;DHT22;12030;50.376;8.762;2022-12-18T16:15:20;-2.60;99.90
23703;DHT22;12030;50.376;8.762;2022-12-18T16:17:47;-2.70;99.90
23703;DHT22;12030;50.376;8.762;2022-12-18T16:20:19;-2.70;99.90
23703;DHT22;12030;50.376;8.762;2022-12-18T16:22:46;-2.70;99.90
23703;DHT22;12030;50.376;8.762;2022-12-18T16:25:24;-2.70;99.90
23703;DHT22;12030;50.376;8.762;2022-12-18T16:27:50;-2.70;99.90
23703;DHT22;12030;50.376;8.762;2022-12-18T16:30:21;-2.70;99.90
23703;DHT22;12030;50.376;8.762;2022-12-18T16:32:47;-2.70;99.90
23703;DHT22;12030;50.376;8.762;2022-12-18T16:35:14;-2.80;99.90
23703;DHT22;12030;50.376;8.762;2022-12-18T16:37:40;-2.70;99.90
23703;DHT22;12030;50.376;8.762;2022-12-18T16:40:08;-2.60;99.90
23703;DHT22;12030;50.376;8.762;2022-12-18T16:42:36;-2.60;99.90
23703;DHT22;12030;50.376;8.762;2022-12-18T16:45:02;-2.60;99.90
23703;DHT22;12030;50.376;8.762;2022-12-18T16:47:28;-2.70;99.90
23703;DHT22;12030;50.376;8.762;2022-12-18T16:49:54;-2.70;99.90
23703;DHT22;12030;50.376;8.762;2022-12-18T16:52:20;-2.80;99.90
23703;DHT22;12030;50.376;8.762;2022-12-18T16:54:45;-2.80;99.90
23703;DHT22;12030;50.376;8.762;2022-12-18T16:57:17;-2.80;99.90
23703;DHT22;12030;50.376;8.762;2022-12-18T16:59:42;-2.80;99.90
23703;DHT22;12030;50.376;8.762;2022-12-18T17:02:17;-2.80;99.90
23703;DHT22;12030;50.376;8.762;2022-12-18T17:04:43;-2.90;99.90
23703;DHT22;12030;50.376;8.762;2022-12-18T17:07:09;-2.90;99.90
23703;DHT22;12030;50.376;8.762;2022-12-18T17:09:35;-2.80;99.90
23703;DHT22;12030;50.376;8.762;2022-12-18T17:12:01;-2.80;99.90
23703;DHT22;12030;50.376;8.762;2022-12-18T17:14:26;-2.90;99.90
23703;DHT22;12030;50.376;8.762;2022-12-18T17:16:53;-2.80;99.90
23703;DHT22;12030;50.376;8.762;2022-12-18T17:19:19;-2.80;99.90
23703;DHT22;12030;50.376;8.762;2022-12-18T17:21:48;-2.80;99.90
23703;DHT22;12030;50.376;8.762;2022-12-18T17:24:14;-2.80;99.90
23703;DHT22;12030;50.376;8.762;2022-12-18T17:26:40;-2.80;99.90
23703;DHT22;12030;50.376;8.762;2022-12-18T17:29:05;-2.80;99.90
23703;DHT22;12030;50.376;8.762;2022-12-18T17:31:31;-2.70;99.90
23703;DHT22;12030;50.376;8.762;2022-12-18T17:33:58;-2.70;99.90
23703;DHT22;12030;50.376;8.762;2022-12-18T17:36:25;-2.70;99.90